createdAt,value
2023-04-16T00:00:04.724Z,8.40
2023-04-16T00:01:13.112Z,8.40
2023-04-16T00:02:17.602Z,8.40
2023-04-16T00:03:19.974Z,8.40
2023-04-16T00:04:23.286Z,8.40
2023-04-16T00:05:25.551Z,8.40
2023-04-16T00:06:28.675Z,8.40
2023-04-16T00:07:30.753Z,8.40
2023-04-16T00:08:35.633Z,8.40
2023-04-16T00:09:37.756Z,8.50
2023-04-16T00:10:40.964Z,8.50
2023-04-16T00:11:43.011Z,8.50
2023-04-16T00:12:46.131Z,8.50
2023-04-16T00:13:48.348Z,8.50
2023-04-16T00:14:51.438Z,8.50
2023-04-16T00:15:53.513Z,8.50
2023-04-16T00:16:56.604Z,8.50
2023-04-16T00:18:00.097Z,8.50
2023-04-16T00:19:03.193Z,8.50
2023-04-16T00:20:06.567Z,8.40
2023-04-16T00:21:09.852Z,8.40
2023-04-16T00:22:11.919Z,8.40
2023-04-16T00:23:14.955Z,8.40
2023-04-16T00:24:16.983Z,8.40
2023-04-16T00:25:20.234Z,8.40
2023-04-16T00:26:22.291Z,8.40
2023-04-16T00:27:25.734Z,8.40
2023-04-16T00:28:27.796Z,8.40
2023-04-16T00:29:31.058Z,8.40
2023-04-16T00:30:33.174Z,8.40
2023-04-16T00:31:36.177Z,8.40
2023-04-16T00:32:38.805Z,8.40
2023-04-16T00:33:43.264Z,8.40
2023-04-16T00:34:45.493Z,8.40
2023-04-16T00:35:49.009Z,8.40
2023-04-16T00:36:51.031Z,8.50
2023-04-16T00:37:54.078Z,8.50
2023-04-16T00:38:57.035Z,8.50
2023-04-16T00:40:00.035Z,8.50
2023-04-16T00:41:02.275Z,8.50
2023-04-16T00:42:05.469Z,8.50
2023-04-16T00:43:07.505Z,8.50
2023-04-16T00:44:10.568Z,8.50
2023-04-16T00:45:12.775Z,8.50
2023-04-16T00:46:17.802Z,8.50
2023-04-16T00:47:20.697Z,8.50
2023-04-16T00:48:23.796Z,8.60
2023-04-16T00:49:27.889Z,8.50
2023-04-16T00:50:34.520Z,8.60
2023-04-16T00:51:36.879Z,8.60
2023-04-16T00:52:40.820Z,8.60
2023-04-16T00:53:44.496Z,8.60
2023-04-16T00:54:48.162Z,8.50
2023-04-16T00:55:50.995Z,8.60
2023-04-16T00:56:54.035Z,8.50
2023-04-16T00:57:56.074Z,8.50
2023-04-16T00:59:00.260Z,8.50
2023-04-16T01:00:03.065Z,8.50
2023-04-16T01:01:07.403Z,8.50
2023-04-16T01:02:09.582Z,8.50
2023-04-16T01:03:12.939Z,8.50
2023-04-16T01:04:15.336Z,8.50
2023-04-16T01:05:20.958Z,8.50
2023-04-16T01:06:23.077Z,8.50
2023-04-16T01:07:26.206Z,8.50
2023-04-16T01:08:28.290Z,8.50
2023-04-16T01:09:31.323Z,8.50
2023-04-16T01:10:33.376Z,8.50
2023-04-16T01:11:37.909Z,8.50
2023-04-16T01:12:40.035Z,8.50
2023-04-16T01:13:43.283Z,8.50
2023-04-16T01:14:45.494Z,8.50
2023-04-16T01:15:48.515Z,8.50
2023-04-16T01:16:50.552Z,8.50
2023-04-16T01:17:53.642Z,8.50
2023-04-16T01:18:55.743Z,8.50
2023-04-16T01:20:00.254Z,8.50
2023-04-16T01:21:04.519Z,8.50
2023-04-16T01:22:08.402Z,8.50
2023-04-16T01:23:11.346Z,8.50
2023-04-16T01:24:14.675Z,8.50
2023-04-16T01:25:16.869Z,8.50
2023-04-16T01:26:19.924Z,8.50
2023-04-16T01:27:21.990Z,8.50
2023-04-16T01:28:25.059Z,8.50
2023-04-16T01:29:27.426Z,8.50
2023-04-16T01:30:32.894Z,8.50
2023-04-16T01:31:59.119Z,8.50
2023-04-16T01:33:04.568Z,8.50
2023-04-16T01:34:08.297Z,8.50
2023-04-16T01:35:10.642Z,8.50
2023-04-16T01:36:15.317Z,8.50
2023-04-16T01:37:17.696Z,8.50
2023-04-16T01:38:22.498Z,8.50
2023-04-16T01:39:24.614Z,8.50
2023-04-16T01:40:27.657Z,8.50
2023-04-16T01:41:31.088Z,8.50
2023-04-16T01:42:34.160Z,8.50
2023-04-16T01:43:37.894Z,8.50
2023-04-16T01:44:42.650Z,8.50
2023-04-16T01:45:44.746Z,8.50
2023-04-16T01:46:48.249Z,8.50
2023-04-16T01:47:51.097Z,8.50
2023-04-16T01:48:55.299Z,8.50
2023-04-16T01:49:57.643Z,8.50
2023-04-16T01:51:00.806Z,8.50
2023-04-16T01:52:04.735Z,8.50
2023-04-16T01:53:09.613Z,8.50
2023-04-16T01:54:11.683Z,8.50
2023-04-16T01:55:16.270Z,8.50
2023-04-16T01:56:18.586Z,8.50
2023-04-16T01:57:21.667Z,8.50
2023-04-16T01:58:24.293Z,8.50
2023-04-16T01:59:27.324Z,8.50
2023-04-16T02:00:29.385Z,8.50
2023-04-16T02:01:32.575Z,8.50
2023-04-16T02:02:35.134Z,8.60
2023-04-16T02:03:38.676Z,8.60
2023-04-16T02:04:41.494Z,8.60
2023-04-16T02:05:44.618Z,8.60
2023-04-16T02:06:47.115Z,8.60
2023-04-16T02:07:51.644Z,8.60
2023-04-16T02:08:53.910Z,8.60
2023-04-16T02:09:57.978Z,8.60
2023-04-16T02:11:00.657Z,8.60
2023-04-16T02:12:03.739Z,8.60
2023-04-16T02:13:05.763Z,8.60
2023-04-16T02:14:09.597Z,8.60
2023-04-16T02:15:12.548Z,8.50
2023-04-16T02:16:16.110Z,8.50
2023-04-16T02:17:27.469Z,8.60
2023-04-16T02:18:42.447Z,8.60
2023-04-16T02:19:45.292Z,8.60
2023-04-16T02:20:49.559Z,8.60
2023-04-16T02:21:52.174Z,8.60
2023-04-16T02:22:56.580Z,8.50
2023-04-16T02:23:59.516Z,8.60
2023-04-16T02:25:06.525Z,8.50
2023-04-16T02:26:08.834Z,8.60
2023-04-16T02:27:12.118Z,8.60
2023-04-16T02:28:17.074Z,8.60
2023-04-16T02:29:22.648Z,8.50
2023-04-16T02:30:31.875Z,8.60
2023-04-16T02:31:34.901Z,8.50
2023-04-16T02:32:37.710Z,8.50
2023-04-16T02:33:41.283Z,8.50
2023-04-16T02:34:43.339Z,8.50
2023-04-16T02:35:48.576Z,8.40
2023-04-16T02:36:50.643Z,8.40
2023-04-16T02:37:53.684Z,8.40
2023-04-16T02:38:57.110Z,8.50
2023-04-16T02:40:00.310Z,8.50
2023-04-16T02:41:02.455Z,8.50
2023-04-16T02:42:05.543Z,8.50
2023-04-16T02:43:07.675Z,8.50
2023-04-16T02:44:09.711Z,8.50
2023-04-16T02:45:13.498Z,8.50
2023-04-16T02:46:15.772Z,8.50
2023-04-16T02:47:18.965Z,8.50
2023-04-16T02:48:21.026Z,8.60
2023-04-16T02:49:24.691Z,8.60
2023-04-16T02:50:26.752Z,8.60
2023-04-16T02:51:29.836Z,8.60
2023-04-16T02:52:32.955Z,8.60
2023-04-16T02:53:36.114Z,8.60
2023-04-16T02:54:39.534Z,8.60
2023-04-16T02:55:42.596Z,8.60
2023-04-16T02:56:44.644Z,8.60
2023-04-16T02:57:47.700Z,8.70
2023-04-16T02:58:49.785Z,8.70
2023-04-16T02:59:52.797Z,8.70
2023-04-16T03:00:55.350Z,8.70
2023-04-16T03:01:58.834Z,8.70
2023-04-16T03:03:01.285Z,8.70
2023-04-16T03:04:04.353Z,8.70
2023-04-16T03:05:07.136Z,8.70
2023-04-16T03:06:10.232Z,8.70
2023-04-16T03:07:13.013Z,8.70
2023-04-16T03:08:16.063Z,8.70
2023-04-16T03:09:18.148Z,8.60
2023-04-16T03:10:22.927Z,8.60
2023-04-16T03:11:24.998Z,8.60
2023-04-16T03:12:28.020Z,8.60
2023-04-16T03:13:30.187Z,8.60
2023-04-16T03:14:33.269Z,8.60
2023-04-16T03:15:35.349Z,8.60
2023-04-16T03:16:38.503Z,8.60
2023-04-16T03:17:40.611Z,8.50
2023-04-16T03:18:43.658Z,8.50
2023-04-16T03:19:46.101Z,8.50
2023-04-16T03:20:53.069Z,8.50
2023-04-16T03:21:55.162Z,8.50
2023-04-16T03:22:58.206Z,8.50
2023-04-16T03:24:01.217Z,8.50
2023-04-16T03:25:03.543Z,8.50
2023-04-16T03:26:09.034Z,8.50
2023-04-16T03:27:11.102Z,8.50
2023-04-16T03:28:14.243Z,8.50
2023-04-16T03:29:16.334Z,8.50
2023-04-16T03:30:19.759Z,8.50
2023-04-16T03:31:24.279Z,8.50
2023-04-16T03:32:27.814Z,8.50
2023-04-16T03:33:30.055Z,8.50
2023-04-16T03:34:33.214Z,8.50
2023-04-16T03:35:35.512Z,8.50
2023-04-16T03:36:39.252Z,8.50
2023-04-16T03:37:41.290Z,8.50
2023-04-16T03:38:44.524Z,8.50
2023-04-16T03:39:46.560Z,8.50
2023-04-16T03:40:49.627Z,8.50
2023-04-16T03:41:53.069Z,8.50
2023-04-16T03:42:56.145Z,8.40
2023-04-16T03:43:58.348Z,8.40
2023-04-16T03:45:01.735Z,8.40
2023-04-16T03:46:03.803Z,8.40
2023-04-16T03:47:06.844Z,8.40
2023-04-16T03:48:09.001Z,8.50
2023-04-16T03:49:12.693Z,8.40
2023-04-16T03:50:14.894Z,8.40
2023-04-16T03:51:17.885Z,8.40
2023-04-16T03:52:20.011Z,8.40
2023-04-16T03:53:23.508Z,8.40
2023-04-16T03:54:25.737Z,8.40
2023-04-16T03:55:38.065Z,8.40
2023-04-16T03:56:41.399Z,8.40
2023-04-16T03:57:45.779Z,8.40
2023-04-16T03:58:50.326Z,8.40
2023-04-16T03:59:53.481Z,8.40
2023-04-16T04:00:55.660Z,8.40
2023-04-16T04:01:58.882Z,8.50
2023-04-16T04:03:01.687Z,8.40
2023-04-16T04:04:05.286Z,8.50
2023-04-16T04:05:08.445Z,8.50
2023-04-16T04:06:12.652Z,8.50
2023-04-16T04:07:16.245Z,8.50
2023-04-16T04:08:19.329Z,8.50
2023-04-16T04:09:21.429Z,8.50
2023-04-16T04:10:24.599Z,8.50
2023-04-16T04:11:26.736Z,8.50
2023-04-16T04:12:30.531Z,8.50
2023-04-16T04:13:34.016Z,8.50
2023-04-16T04:14:39.681Z,8.50
2023-04-16T04:15:42.342Z,8.50
2023-04-16T04:16:45.675Z,8.50
2023-04-16T04:17:47.831Z,8.50
2023-04-16T04:18:50.957Z,8.50
2023-04-16T04:20:00.918Z,8.50
2023-04-16T04:21:08.096Z,8.60
2023-04-16T04:22:10.245Z,8.60
2023-04-16T04:23:14.351Z,8.60
2023-04-16T04:24:16.388Z,8.60
2023-04-16T04:25:19.610Z,8.60
2023-04-16T04:26:22.452Z,8.60
2023-04-16T04:27:25.618Z,8.60
2023-04-16T04:28:27.651Z,8.60
2023-04-16T04:29:32.037Z,8.70
2023-04-16T04:30:35.680Z,8.60
2023-04-16T04:31:39.000Z,8.60
2023-04-16T04:32:41.362Z,8.60
2023-04-16T04:33:45.487Z,8.60
2023-04-16T04:34:47.957Z,8.60
2023-04-16T04:35:51.725Z,8.70
2023-04-16T04:36:54.908Z,8.60
2023-04-16T04:37:58.059Z,8.60
2023-04-16T04:39:00.631Z,8.60
2023-04-16T04:40:04.217Z,8.70
2023-04-16T04:41:06.642Z,8.60
2023-04-16T04:42:12.449Z,8.60
2023-04-16T04:43:14.831Z,8.60
2023-04-16T04:44:17.849Z,8.60
2023-04-16T04:45:21.356Z,8.60
2023-04-16T04:46:24.496Z,8.60
2023-04-16T04:47:29.057Z,8.60
2023-04-16T04:48:32.215Z,8.70
2023-04-16T04:49:34.299Z,8.60
2023-04-16T04:50:37.832Z,8.70
2023-04-16T04:51:39.895Z,8.70
2023-04-16T04:52:42.908Z,8.70
2023-04-16T04:53:45.056Z,8.60
2023-04-16T04:54:48.161Z,8.60
2023-04-16T04:55:53.123Z,8.60
2023-04-16T04:56:57.193Z,8.60
2023-04-16T04:57:59.294Z,8.60
2023-04-16T04:59:02.818Z,8.60
2023-04-16T05:00:05.745Z,8.60
2023-04-16T05:01:18.711Z,8.70
2023-04-16T05:02:20.980Z,8.70
2023-04-16T05:03:24.277Z,8.70
2023-04-16T05:04:26.494Z,8.70
2023-04-16T05:05:29.521Z,8.70
2023-04-16T05:06:31.614Z,8.70
2023-04-16T05:07:34.840Z,8.70
2023-04-16T05:08:36.856Z,8.70
2023-04-16T05:09:39.938Z,8.70
2023-04-16T05:10:42.007Z,8.70
2023-04-16T05:11:45.006Z,8.70
2023-04-16T05:12:48.895Z,8.70
2023-04-16T05:13:52.171Z,8.70
2023-04-16T05:14:54.272Z,8.70
2023-04-16T05:15:57.389Z,8.70
2023-04-16T05:17:01.019Z,8.70
2023-04-16T05:18:04.415Z,8.70
2023-04-16T05:19:06.650Z,8.70
2023-04-16T05:20:10.799Z,8.70
2023-04-16T05:21:14.080Z,8.70
2023-04-16T05:22:18.919Z,8.70
2023-04-16T05:23:22.076Z,8.70
2023-04-16T05:24:24.137Z,8.70
2023-04-16T05:25:27.156Z,8.80
2023-04-16T05:26:29.219Z,8.70
2023-04-16T05:27:32.329Z,8.80
2023-04-16T05:28:34.407Z,8.80
2023-04-16T05:29:37.363Z,8.70
2023-04-16T05:30:39.484Z,8.80
2023-04-16T05:31:42.685Z,8.80
2023-04-16T05:32:46.255Z,8.70
2023-04-16T05:33:49.271Z,8.70
2023-04-16T05:34:51.290Z,8.70
2023-04-16T05:35:54.253Z,8.70
2023-04-16T05:36:56.242Z,8.80
2023-04-16T05:37:59.287Z,8.80
2023-04-16T05:39:01.509Z,8.80
2023-04-16T05:40:05.110Z,8.80
2023-04-16T05:41:07.223Z,8.80
2023-04-16T05:42:10.225Z,8.80
2023-04-16T05:43:12.314Z,8.80
2023-04-16T05:44:16.303Z,8.90
2023-04-16T05:45:18.413Z,8.80
2023-04-16T05:46:21.590Z,8.80
2023-04-16T05:47:24.331Z,8.80
2023-04-16T05:48:28.840Z,8.80
2023-04-16T05:49:30.877Z,8.90
2023-04-16T05:50:33.862Z,8.90
2023-04-16T05:51:36.161Z,8.90
2023-04-16T05:52:39.871Z,8.90
2023-04-16T05:53:42.046Z,8.80
2023-04-16T05:54:45.026Z,8.80
2023-04-16T05:55:47.183Z,8.90
2023-04-16T05:56:50.235Z,8.90
2023-04-16T05:57:52.287Z,8.80
2023-04-16T05:58:55.360Z,8.80
2023-04-16T05:59:57.600Z,8.90
2023-04-16T06:01:01.079Z,8.90
2023-04-16T06:02:03.210Z,8.90
2023-04-16T06:03:06.533Z,8.90
2023-04-16T06:04:10.244Z,8.90
2023-04-16T06:05:13.313Z,8.90
2023-04-16T06:06:15.427Z,8.90
2023-04-16T06:07:18.398Z,8.90
2023-04-16T06:08:21.397Z,9.00
2023-04-16T06:09:23.525Z,9.00
2023-04-16T06:10:26.603Z,9.00
2023-04-16T06:11:29.950Z,9.00
2023-04-16T06:12:33.015Z,9.00
2023-04-16T06:13:35.041Z,9.00
2023-04-16T06:14:38.045Z,8.90
2023-04-16T06:15:40.225Z,8.90
2023-04-16T06:16:43.260Z,8.90
2023-04-16T06:17:45.316Z,8.80
2023-04-16T06:18:48.637Z,8.80
2023-04-16T06:19:52.031Z,8.80
2023-04-16T06:20:55.219Z,8.80
2023-04-16T06:21:57.900Z,8.70
2023-04-16T06:23:01.126Z,8.70
2023-04-16T06:24:03.211Z,8.70
2023-04-16T06:25:07.246Z,8.70
2023-04-16T06:26:09.430Z,8.60
2023-04-16T06:27:12.496Z,8.60
2023-04-16T06:28:14.569Z,8.60
2023-04-16T06:29:17.659Z,8.60
2023-04-16T06:30:20.019Z,8.60
2023-04-16T06:31:23.315Z,8.60
2023-04-16T06:32:25.810Z,8.60
2023-04-16T06:33:28.884Z,8.60
2023-04-16T06:34:31.203Z,8.60
2023-04-16T06:35:35.863Z,8.60
2023-04-16T06:36:37.920Z,8.60
2023-04-16T06:37:41.396Z,8.60
2023-04-16T06:38:43.764Z,8.60
2023-04-16T06:39:47.014Z,8.60
2023-04-16T06:40:49.499Z,8.60
2023-04-16T06:41:52.659Z,8.60
2023-04-16T06:42:54.803Z,8.50
2023-04-16T06:43:57.806Z,8.50
2023-04-16T06:44:59.826Z,8.50
2023-04-16T06:46:02.828Z,8.50
2023-04-16T06:47:05.065Z,8.40
2023-04-16T06:48:08.218Z,8.40
2023-04-16T06:49:10.566Z,8.40
2023-04-16T06:50:13.680Z,8.40
2023-04-16T06:51:17.148Z,8.40
2023-04-16T06:52:20.297Z,8.40
2023-04-16T06:53:22.650Z,8.30
2023-04-16T06:54:25.690Z,8.30
2023-04-16T06:55:27.666Z,8.30
2023-04-16T06:56:30.943Z,8.30
2023-04-16T06:57:35.163Z,8.30
2023-04-16T06:58:38.946Z,8.30
2023-04-16T06:59:41.974Z,8.30
2023-04-16T07:00:44.122Z,8.30
2023-04-16T07:01:47.145Z,8.30
2023-04-16T07:02:49.397Z,8.20
2023-04-16T07:03:52.834Z,8.20
2023-04-16T07:04:55.023Z,8.20
2023-04-16T07:05:58.064Z,8.20
2023-04-16T07:07:01.413Z,8.20
2023-04-16T07:08:04.644Z,8.20
2023-04-16T07:09:06.731Z,8.20
2023-04-16T07:10:10.691Z,8.10
2023-04-16T07:11:12.865Z,8.10
2023-04-16T07:12:15.994Z,8.20
2023-04-16T07:13:18.609Z,8.10
2023-04-16T07:14:21.912Z,8.10
2023-04-16T07:15:25.054Z,8.10
2023-04-16T07:16:27.176Z,8.10
2023-04-16T07:17:30.237Z,8.00
2023-04-16T07:18:32.684Z,8.10
2023-04-16T07:19:35.937Z,8.00
2023-04-16T07:20:38.097Z,8.00
2023-04-16T07:21:42.010Z,8.00
2023-04-16T07:22:46.515Z,8.00
2023-04-16T07:23:48.576Z,8.00
2023-04-16T07:24:51.557Z,8.00
2023-04-16T07:25:54.130Z,8.00
2023-04-16T07:26:57.534Z,7.90
2023-04-16T07:27:59.526Z,7.90
2023-04-16T07:29:02.495Z,8.00
2023-04-16T07:30:05.760Z,8.00
2023-04-16T07:31:09.320Z,8.00
2023-04-16T07:32:14.728Z,8.00
2023-04-16T07:33:18.529Z,8.00
2023-04-16T07:34:20.954Z,8.00
2023-04-16T07:35:23.925Z,8.00
2023-04-16T07:36:28.315Z,8.00
2023-04-16T07:37:31.812Z,8.00
2023-04-16T07:38:35.434Z,8.10
2023-04-16T07:39:38.455Z,8.10
2023-04-16T07:40:41.609Z,8.10
2023-04-16T07:41:43.706Z,8.00
2023-04-16T07:42:46.771Z,8.00
2023-04-16T07:43:48.947Z,8.00
2023-04-16T07:44:51.989Z,8.00
2023-04-16T07:45:55.070Z,8.00
2023-04-16T07:46:57.218Z,8.00
2023-04-16T07:48:00.500Z,8.00
2023-04-16T07:49:02.691Z,8.00
2023-04-16T07:50:06.688Z,8.00
2023-04-16T07:51:08.889Z,8.00
2023-04-16T07:52:12.027Z,8.00
2023-04-16T07:53:15.020Z,8.00
2023-04-16T07:54:18.358Z,8.00
2023-04-16T07:55:21.583Z,8.00
2023-04-16T07:56:24.551Z,8.00
2023-04-16T07:57:26.592Z,8.00
2023-04-16T07:58:29.572Z,8.00
2023-04-16T07:59:31.702Z,8.00
2023-04-16T08:00:37.177Z,8.00
2023-04-16T08:01:39.278Z,8.10
2023-04-16T08:02:42.695Z,8.10
2023-04-16T08:03:45.999Z,8.10
2023-04-16T08:04:48.267Z,8.10
2023-04-16T08:05:51.371Z,8.20
2023-04-16T08:06:53.672Z,8.20
2023-04-16T08:07:56.679Z,8.20
2023-04-16T08:08:59.752Z,8.30
2023-04-16T08:10:03.264Z,8.40
2023-04-16T08:11:07.719Z,8.40
2023-04-16T08:12:09.880Z,8.40
2023-04-16T08:13:12.883Z,8.40
2023-04-16T08:14:15.006Z,8.40
2023-04-16T08:15:18.081Z,8.50
2023-04-16T08:16:20.447Z,8.50
2023-04-16T08:17:23.660Z,8.50
2023-04-16T08:18:25.951Z,8.50
2023-04-16T08:19:28.968Z,8.50
2023-04-16T08:20:31.435Z,8.50
2023-04-16T08:21:34.874Z,8.50
2023-04-16T08:22:37.922Z,8.50
2023-04-16T08:23:40.275Z,8.50
2023-04-16T08:24:43.347Z,8.50
2023-04-16T08:25:47.834Z,8.50
2023-04-16T08:26:50.899Z,8.50
2023-04-16T08:27:52.913Z,8.40
2023-04-16T08:28:55.918Z,8.40
2023-04-16T08:29:58.038Z,8.40
2023-04-16T08:31:01.169Z,8.40
2023-04-16T08:32:04.227Z,8.40
2023-04-16T08:33:07.409Z,8.40
2023-04-16T08:34:11.402Z,8.50
2023-04-16T08:35:14.561Z,8.50
2023-04-16T08:36:16.581Z,8.50
2023-04-16T08:37:19.822Z,8.40
2023-04-16T08:38:22.819Z,8.40
2023-04-16T08:39:24.875Z,8.40
2023-04-16T08:40:30.625Z,8.40
2023-04-16T08:41:36.845Z,8.40
2023-04-16T08:42:45.844Z,8.40
2023-04-16T08:43:50.541Z,8.50
2023-04-16T08:45:03.455Z,8.50
2023-04-16T08:46:06.575Z,8.50
2023-04-16T08:47:13.259Z,8.50
2023-04-16T08:48:15.750Z,8.50
2023-04-16T08:49:19.452Z,8.50
2023-04-16T08:50:24.127Z,8.40
2023-04-16T08:51:30.048Z,8.40
2023-04-16T08:52:33.025Z,8.40
2023-04-16T08:53:44.123Z,8.30
2023-04-16T08:54:56.829Z,8.30
2023-04-16T08:56:03.359Z,8.30
2023-04-16T08:57:10.093Z,8.30
2023-04-16T08:58:15.450Z,8.30
2023-04-16T08:59:18.586Z,8.30
2023-04-16T09:00:22.150Z,8.40
2023-04-16T09:01:26.622Z,8.30
2023-04-16T09:02:29.973Z,8.40
2023-04-16T09:03:36.285Z,8.40
2023-04-16T09:04:39.780Z,8.40
2023-04-16T09:05:44.863Z,8.40
2023-04-16T09:06:48.442Z,8.40
2023-04-16T09:07:52.842Z,8.50
2023-04-16T09:08:55.962Z,8.40
2023-04-16T09:09:59.778Z,8.50
2023-04-16T09:11:02.953Z,8.50
2023-04-16T09:12:08.626Z,8.50
2023-04-16T09:13:11.718Z,8.50
2023-04-16T09:14:15.002Z,8.50
2023-04-16T09:15:18.119Z,8.60
2023-04-16T09:16:22.244Z,8.60
2023-04-16T09:17:24.718Z,8.60
2023-04-16T09:18:28.434Z,8.60
2023-04-16T09:19:30.646Z,8.60
2023-04-16T09:20:33.686Z,8.60
2023-04-16T09:21:36.455Z,8.60
2023-04-16T09:22:40.346Z,8.50
2023-04-16T09:23:43.456Z,8.50
2023-04-16T09:24:46.614Z,8.60
2023-04-16T09:25:49.640Z,8.50
2023-04-16T09:26:55.844Z,8.40
2023-04-16T09:28:01.688Z,8.40
2023-04-16T09:29:04.017Z,8.40
2023-04-16T09:30:22.021Z,8.40
2023-04-16T09:31:25.055Z,8.30
2023-04-16T09:32:28.797Z,8.30
2023-04-16T09:33:33.781Z,8.30
2023-04-16T09:34:55.951Z,8.30
2023-04-16T09:35:58.097Z,8.30
2023-04-16T09:37:16.922Z,8.30
2023-04-16T09:38:20.804Z,8.30
2023-04-16T09:39:24.066Z,8.30
2023-04-16T09:40:27.159Z,8.30
2023-04-16T09:41:31.880Z,8.30
2023-04-16T09:42:37.025Z,8.30
2023-04-16T09:43:41.678Z,8.30
2023-04-16T09:44:43.957Z,8.30
2023-04-16T09:45:51.747Z,8.30
2023-04-16T09:46:55.009Z,8.30
2023-04-16T09:48:04.937Z,8.30
2023-04-16T09:49:09.369Z,8.30
2023-04-16T09:50:18.599Z,8.30
2023-04-16T09:51:21.038Z,8.30
2023-04-16T09:52:24.431Z,8.40
2023-04-16T09:53:27.595Z,8.40
2023-04-16T09:54:31.254Z,8.40
2023-04-16T09:55:33.692Z,8.40
2023-04-16T09:56:41.170Z,8.40
2023-04-16T09:57:43.183Z,8.40
2023-04-16T09:58:47.612Z,8.40
2023-04-16T09:59:54.355Z,8.40
2023-04-16T10:01:00.612Z,8.50
2023-04-16T10:02:15.554Z,8.50
2023-04-16T10:03:19.418Z,8.50
2023-04-16T10:04:22.364Z,8.40
2023-04-16T10:05:27.589Z,8.40
2023-04-16T10:06:31.650Z,8.40
2023-04-16T10:07:34.761Z,8.40
2023-04-16T10:08:38.732Z,8.40
2023-04-16T10:09:41.523Z,8.30
2023-04-16T10:10:44.708Z,8.40
2023-04-16T10:11:49.688Z,8.30
2023-04-16T10:12:53.083Z,8.30
2023-04-16T10:13:57.438Z,8.30
2023-04-16T10:14:59.608Z,8.30
2023-04-16T10:16:04.170Z,8.30
2023-04-16T10:17:06.558Z,8.30
2023-04-16T10:18:09.934Z,8.30
2023-04-16T10:19:13.191Z,8.30
2023-04-16T10:20:17.420Z,8.30
2023-04-16T10:21:20.929Z,8.30
2023-04-16T10:22:23.013Z,8.30
2023-04-16T10:23:26.058Z,8.30
2023-04-16T10:24:29.299Z,8.30
2023-04-16T10:25:33.112Z,8.30
2023-04-16T10:26:36.131Z,8.30
2023-04-16T10:27:40.826Z,8.30
2023-04-16T10:28:42.898Z,8.30
2023-04-16T10:29:48.884Z,8.30
2023-04-16T10:30:55.042Z,8.30
2023-04-16T10:31:59.321Z,8.30
2023-04-16T10:33:03.912Z,8.40
2023-04-16T10:34:08.074Z,8.30
2023-04-16T10:35:16.174Z,8.30
2023-04-16T10:36:26.415Z,8.30
2023-04-16T10:37:32.960Z,8.30
2023-04-16T10:38:37.847Z,8.30
2023-04-16T10:39:40.838Z,8.30
2023-04-16T10:40:45.475Z,8.30
2023-04-16T10:41:48.564Z,8.30
2023-04-16T10:42:57.891Z,8.40
2023-04-16T10:44:09.640Z,8.40
2023-04-16T10:45:13.210Z,8.40
2023-04-16T10:46:20.801Z,8.30
2023-04-16T10:47:26.014Z,8.40
2023-04-16T10:48:35.697Z,8.40
2023-04-16T10:49:50.744Z,8.40
2023-04-16T10:50:57.337Z,8.40
2023-04-16T10:52:02.330Z,8.40
2023-04-16T10:53:23.941Z,8.50
2023-04-16T10:54:28.449Z,8.50
2023-04-16T10:55:30.457Z,8.50
2023-04-16T10:56:34.625Z,8.50
2023-04-16T10:57:36.815Z,8.40
2023-04-16T10:58:39.975Z,8.40
2023-04-16T10:59:44.376Z,8.40
2023-04-16T11:00:51.887Z,8.40
2023-04-16T11:01:56.776Z,8.40
2023-04-16T11:02:59.103Z,8.40
2023-04-16T11:04:22.773Z,8.50
2023-04-16T11:05:46.740Z,8.50
2023-04-16T11:07:04.788Z,8.50
2023-04-16T11:08:16.108Z,8.50
2023-04-16T11:09:44.520Z,8.50
2023-04-16T11:10:47.693Z,8.50
2023-04-16T11:11:50.038Z,8.60
2023-04-16T11:12:53.605Z,8.70
2023-04-16T11:13:56.981Z,8.70
2023-04-16T11:15:01.464Z,8.80
2023-04-16T11:16:06.110Z,8.80
2023-04-16T11:17:09.363Z,8.90
2023-04-16T11:18:11.745Z,9.00
2023-04-16T11:19:18.682Z,9.10
2023-04-16T11:20:23.482Z,9.10
2023-04-16T11:21:26.619Z,9.10
2023-04-16T11:22:29.841Z,9.10
2023-04-16T11:23:46.298Z,9.10
2023-04-16T11:24:54.494Z,9.10
2023-04-16T11:25:58.585Z,9.10
2023-04-16T11:27:01.677Z,9.10
2023-04-16T11:28:04.762Z,9.20
2023-04-16T11:29:15.022Z,9.20
2023-04-16T11:30:18.731Z,9.20
2023-04-16T11:31:23.453Z,9.20
2023-04-16T11:32:26.642Z,9.20
2023-04-16T11:33:31.575Z,9.30
2023-04-16T11:34:35.145Z,9.40
2023-04-16T11:35:39.293Z,9.40
2023-04-16T11:36:45.491Z,9.50
2023-04-16T11:37:49.300Z,9.60
2023-04-16T11:38:51.590Z,9.70
2023-04-16T11:39:54.712Z,9.80
2023-04-16T11:40:56.924Z,9.90
2023-04-16T11:42:00.033Z,10.10
2023-04-16T11:43:03.193Z,10.30
2023-04-16T11:44:19.167Z,10.40
2023-04-16T11:45:22.200Z,10.60
2023-04-16T11:46:38.474Z,10.70
2023-04-16T11:47:46.531Z,10.80
2023-04-16T11:48:50.105Z,10.90
2023-04-16T11:49:53.353Z,11.10
2023-04-16T11:50:56.584Z,11.10
2023-04-16T11:52:01.460Z,11.20
2023-04-16T11:53:05.536Z,11.30
2023-04-16T11:54:11.689Z,11.20
2023-04-16T11:55:15.455Z,11.30
2023-04-16T11:56:27.455Z,11.20
2023-04-16T11:57:32.206Z,11.30
2023-04-16T11:58:34.318Z,11.40
2023-04-16T11:59:38.176Z,11.50
2023-04-16T12:01:01.315Z,11.60
2023-04-16T12:02:05.739Z,11.70
2023-04-16T12:03:08.165Z,11.80
2023-04-16T12:04:11.662Z,11.80
2023-04-16T12:05:27.471Z,11.90
2023-04-16T12:06:32.042Z,12.10
2023-04-16T12:07:45.572Z,12.20
2023-04-16T12:08:47.787Z,12.40
2023-04-16T12:09:50.784Z,12.50
2023-04-16T12:10:54.059Z,12.70
2023-04-16T12:11:57.259Z,12.80
2023-04-16T12:13:15.594Z,12.90
2023-04-16T12:14:17.695Z,12.90
2023-04-16T12:15:20.774Z,12.60
2023-04-16T12:16:26.220Z,12.40
2023-04-16T12:17:31.285Z,12.30
2023-04-16T12:18:33.303Z,12.40
2023-04-16T12:19:49.586Z,12.40
2023-04-16T12:20:52.821Z,12.30
2023-04-16T12:21:55.106Z,12.30
2023-04-16T12:23:01.370Z,12.20
2023-04-16T12:24:05.642Z,12.00
2023-04-16T12:25:12.311Z,11.80
2023-04-16T12:26:14.373Z,11.50
2023-04-16T12:27:17.391Z,11.30
2023-04-16T12:28:31.232Z,11.20
2023-04-16T12:29:34.370Z,11.10
2023-04-16T12:30:51.360Z,11.10
2023-04-16T12:31:54.274Z,11.10
2023-04-16T12:33:16.932Z,11.10
2023-04-16T12:34:20.004Z,11.00
2023-04-16T12:35:33.101Z,10.90
2023-04-16T12:36:35.315Z,10.80
2023-04-16T12:37:38.793Z,10.70
2023-04-16T12:38:40.849Z,10.70
2023-04-16T12:39:43.876Z,10.60
2023-04-16T12:40:47.106Z,10.50
2023-04-16T12:41:49.184Z,10.50
2023-04-16T12:42:52.457Z,10.50
2023-04-16T12:44:03.733Z,10.50
2023-04-16T12:45:08.116Z,10.50
2023-04-16T12:46:10.324Z,10.50
2023-04-16T12:47:13.380Z,10.60
2023-04-16T12:48:16.899Z,10.60
2023-04-16T12:49:19.969Z,10.60
2023-04-16T12:50:22.356Z,10.60
2023-04-16T12:51:25.470Z,10.60
2023-04-16T12:52:28.842Z,10.50
2023-04-16T12:53:30.939Z,10.50
2023-04-16T12:54:34.029Z,10.40
2023-04-16T12:55:36.126Z,10.30
2023-04-16T12:56:39.180Z,10.30
2023-04-16T12:57:41.359Z,10.20
2023-04-16T12:58:44.430Z,10.20
2023-04-16T12:59:47.054Z,10.20
2023-04-16T13:00:50.287Z,10.20
2023-04-16T13:01:53.551Z,10.10
2023-04-16T13:02:56.094Z,10.00
2023-04-16T13:04:00.696Z,9.90
2023-04-16T13:05:02.843Z,9.90
2023-04-16T13:06:06.228Z,9.90
2023-04-16T13:07:08.411Z,9.80
2023-04-16T13:08:11.569Z,9.80
2023-04-16T13:09:15.453Z,9.80
2023-04-16T13:10:17.653Z,9.70
2023-04-16T13:11:20.756Z,9.70
2023-04-16T13:12:22.764Z,9.70
2023-04-16T13:13:25.795Z,9.70
2023-04-16T13:14:27.815Z,9.70
2023-04-16T13:15:30.992Z,9.60
2023-04-16T13:16:34.068Z,9.60
2023-04-16T13:17:36.140Z,9.60
2023-04-16T13:18:40.135Z,9.60
2023-04-16T13:19:44.570Z,9.70
2023-04-16T13:20:46.649Z,9.70
2023-04-16T13:21:49.781Z,9.70
2023-04-16T13:22:51.836Z,9.70
2023-04-16T13:23:55.271Z,9.70
2023-04-16T13:24:57.438Z,9.70
2023-04-16T13:26:00.609Z,9.70
2023-04-16T13:27:02.677Z,9.80
2023-04-16T13:28:05.870Z,9.80
2023-04-16T13:29:09.031Z,9.80
2023-04-16T13:30:12.187Z,9.90
2023-04-16T13:31:15.763Z,9.90
2023-04-16T13:32:18.862Z,9.90
2023-04-16T13:33:22.579Z,10.00
2023-04-16T13:34:24.668Z,10.00
2023-04-16T13:35:29.760Z,10.10
2023-04-16T13:36:33.516Z,10.20
2023-04-16T13:37:36.686Z,10.30
2023-04-16T13:38:39.521Z,10.40
2023-04-16T13:39:42.610Z,10.50
2023-04-16T13:40:44.727Z,10.60
2023-04-16T13:41:48.928Z,10.70
2023-04-16T13:42:51.155Z,10.80
2023-04-16T13:43:55.065Z,10.90
2023-04-16T13:44:58.262Z,11.10
2023-04-16T13:46:01.876Z,11.20
2023-04-16T13:47:04.206Z,11.40
2023-04-16T13:48:07.466Z,11.60
2023-04-16T13:49:10.778Z,11.80
2023-04-16T13:50:13.974Z,12.00
2023-04-16T13:51:18.376Z,12.20
2023-04-16T13:52:21.446Z,12.30
2023-04-16T13:53:24.604Z,12.50
2023-04-16T13:54:27.713Z,12.50
2023-04-16T13:55:31.660Z,12.60
2023-04-16T13:56:34.764Z,12.60
2023-04-16T13:57:36.941Z,12.60
2023-04-16T13:58:40.806Z,12.60
2023-04-16T13:59:42.918Z,12.60
2023-04-16T14:00:46.083Z,12.60
2023-04-16T14:01:48.249Z,12.60
2023-04-16T14:02:51.475Z,12.50
2023-04-16T14:03:53.761Z,12.50
2023-04-16T14:04:56.848Z,12.50
2023-04-16T14:05:58.878Z,12.50